createdAt,value
2023-02-11T00:01:00.357Z,68.55
2023-02-11T00:03:27.398Z,68.15
2023-02-11T00:06:06.033Z,68.27
2023-02-11T00:08:37.217Z,68.61
2023-02-11T00:11:05.107Z,68.84
2023-02-11T00:13:31.965Z,69.68
2023-02-11T00:15:58.980Z,69.61
2023-02-11T00:18:25.841Z,70.01
2023-02-11T00:20:52.783Z,68.48
2023-02-11T00:23:19.669Z,68.74
2023-02-11T00:25:46.560Z,69.67
2023-02-11T00:28:13.557Z,69.73
2023-02-11T00:30:41.098Z,70.02
2023-02-11T00:33:08.899Z,70.57
2023-02-11T00:35:38.685Z,70.93
2023-02-11T00:38:08.034Z,70.04
2023-02-11T00:40:34.915Z,70.26
2023-02-11T00:43:03.777Z,70.33
2023-02-11T00:45:30.847Z,69.63
2023-02-11T00:47:58.200Z,69.84
2023-02-11T00:50:25.228Z,70.27
2023-02-11T00:52:52.163Z,69.55
2023-02-11T00:55:19.333Z,69.97
2023-02-11T00:57:46.554Z,69.97
2023-02-11T01:00:16.832Z,69.52
2023-02-11T01:02:45.055Z,68.84
2023-02-11T01:05:11.994Z,68.92
2023-02-11T01:07:38.987Z,68.48
2023-02-11T01:10:06.265Z,68.99
2023-02-11T01:12:36.164Z,67.96
2023-02-11T01:15:04.160Z,68.25
2023-02-11T01:17:34.194Z,67.82
2023-02-11T01:20:06.027Z,67.10
2023-02-11T01:22:34.405Z,66.73
2023-02-11T01:25:01.275Z,67.27
2023-02-11T01:27:29.752Z,66.74
2023-02-11T01:29:57.868Z,66.71
2023-02-11T01:32:24.759Z,67.22
2023-02-11T01:34:54.048Z,67.39
2023-02-11T01:37:21.051Z,67.18
2023-02-11T01:39:48.319Z,66.95
2023-02-11T01:42:21.083Z,68.22
2023-02-11T01:44:52.587Z,68.59
2023-02-11T01:47:21.039Z,68.54
2023-02-11T01:49:57.064Z,70.21
2023-02-11T01:52:26.873Z,70.24
2023-02-11T01:55:16.709Z,69.16
2023-02-11T01:57:47.681Z,69.71
2023-02-11T02:00:14.775Z,68.76
2023-02-11T02:03:04.161Z,68.42
2023-02-11T02:05:46.640Z,68.22
2023-02-11T02:08:34.804Z,68.26
2023-02-11T02:11:03.170Z,69.26
2023-02-11T02:13:32.317Z,69.90
2023-02-11T02:16:22.077Z,70.66
2023-02-11T02:19:22.566Z,70.94
2023-02-11T02:22:11.041Z,70.81
2023-02-11T02:25:01.075Z,69.80
2023-02-11T02:27:39.973Z,70.47
2023-02-11T02:30:38.516Z,70.62
2023-02-11T02:33:24.454Z,69.50
2023-02-11T02:36:03.037Z,69.31
2023-02-11T02:38:48.786Z,68.81
2023-02-11T02:41:19.049Z,68.14
2023-02-11T02:43:49.298Z,67.87
2023-02-11T02:46:23.996Z,67.30
2023-02-11T02:48:53.401Z,67.88
2023-02-11T02:51:44.712Z,68.56
2023-02-11T02:54:39.220Z,69.07
2023-02-11T02:57:30.998Z,68.43
2023-02-11T03:00:19.416Z,69.16
2023-02-11T03:02:58.330Z,68.70
2023-02-11T03:05:40.439Z,70.17
2023-02-11T03:08:24.083Z,70.86
2023-02-11T03:10:53.807Z,71.66
2023-02-11T03:13:25.202Z,73.17
2023-02-11T03:15:55.686Z,73.00
2023-02-11T03:18:26.156Z,73.22
2023-02-11T03:20:56.280Z,73.59
2023-02-11T03:23:30.875Z,73.09
2023-02-11T03:26:31.358Z,72.81
2023-02-11T03:29:04.238Z,72.92
2023-02-11T03:31:45.056Z,72.99
2023-02-11T03:34:38.020Z,73.10
2023-02-11T03:37:08.019Z,73.08
2023-02-11T03:39:47.696Z,72.86
2023-02-11T03:42:16.459Z,72.71
2023-02-11T03:44:53.795Z,72.79
2023-02-11T03:47:25.838Z,72.12
2023-02-11T03:49:54.724Z,72.03
2023-02-11T03:52:24.822Z,71.62
2023-02-11T03:54:55.642Z,71.16
2023-02-11T03:57:22.598Z,71.10
2023-02-11T03:59:58.364Z,71.37
2023-02-11T04:02:30.316Z,72.27
2023-02-11T04:04:57.627Z,71.88
2023-02-11T04:07:25.471Z,71.99
2023-02-11T04:09:52.991Z,72.15
2023-02-11T04:12:19.987Z,71.38
2023-02-11T04:14:46.837Z,72.42
2023-02-11T04:17:13.814Z,71.36
2023-02-11T04:19:40.726Z,71.90
2023-02-11T04:22:08.233Z,71.48
2023-02-11T04:24:35.511Z,71.15
2023-02-11T04:27:02.632Z,70.91
2023-02-11T04:29:29.858Z,70.34
2023-02-11T04:31:56.764Z,70.42
2023-02-11T04:34:24.596Z,69.67
2023-02-11T04:36:51.618Z,70.18
2023-02-11T04:39:18.756Z,70.16
2023-02-11T04:41:45.840Z,70.57
2023-02-11T04:44:12.769Z,70.47
2023-02-11T04:46:39.665Z,70.28
2023-02-11T04:49:06.585Z,70.47
2023-02-11T04:51:33.541Z,72.14
2023-02-11T04:54:00.489Z,70.94
2023-02-11T04:56:27.464Z,71.55
2023-02-11T04:58:54.431Z,71.70
2023-02-11T05:01:21.972Z,72.21
2023-02-11T05:03:49.406Z,72.24
2023-02-11T05:06:16.425Z,73.26
2023-02-11T05:08:43.460Z,73.75
2023-02-11T05:11:17.199Z,73.07
2023-02-11T05:13:44.215Z,73.16
2023-02-11T05:16:11.460Z,73.31
2023-02-11T05:18:39.238Z,73.08
2023-02-11T05:21:10.426Z,74.03
2023-02-11T05:23:37.435Z,72.21
2023-02-11T05:26:04.513Z,71.77
2023-02-11T05:28:32.559Z,72.27
2023-02-11T05:30:59.558Z,72.05
2023-02-11T05:33:26.543Z,72.46
2023-02-11T05:36:08.512Z,72.37
2023-02-11T05:38:36.395Z,73.16
2023-02-11T05:41:05.277Z,73.53
2023-02-11T05:43:32.459Z,72.98
2023-02-11T05:45:59.494Z,72.59
2023-02-11T05:48:26.438Z,73.25
2023-02-11T05:50:53.345Z,72.26
2023-02-11T05:53:20.251Z,72.72
2023-02-11T05:55:47.264Z,72.26
2023-02-11T05:58:14.150Z,71.88
2023-02-11T06:00:41.043Z,71.29
2023-02-11T06:03:08.154Z,71.18
2023-02-11T06:05:35.068Z,70.77
2023-02-11T06:08:01.923Z,70.13
2023-02-11T06:10:28.862Z,69.94
2023-02-11T06:12:55.776Z,69.42
2023-02-11T06:15:22.606Z,69.06
2023-02-11T06:17:49.437Z,69.28
2023-02-11T06:20:16.570Z,68.79
2023-02-11T06:22:43.451Z,68.33
2023-02-11T06:25:11.281Z,68.14
2023-02-11T06:27:38.632Z,68.97
2023-02-11T06:30:07.139Z,67.66
2023-02-11T06:32:49.587Z,68.29
2023-02-11T06:35:16.614Z,68.20
2023-02-11T06:37:43.942Z,67.82
2023-02-11T06:40:11.742Z,68.01
2023-02-11T06:42:39.986Z,67.57
2023-02-11T06:45:09.604Z,66.67
2023-02-11T06:47:37.303Z,66.97
2023-02-11T06:50:09.595Z,66.32
2023-02-11T06:52:36.959Z,67.00
2023-02-11T06:55:04.092Z,66.66
2023-02-11T06:57:41.188Z,65.96
2023-02-11T07:00:09.571Z,64.33
2023-02-11T07:02:37.080Z,64.48
2023-02-11T07:05:06.934Z,63.92
2023-02-11T07:07:34.485Z,63.43
2023-02-11T07:10:03.262Z,61.92
2023-02-11T07:12:31.452Z,62.27
2023-02-11T07:14:58.391Z,61.51
2023-02-11T07:17:25.339Z,60.86
2023-02-11T07:19:52.232Z,60.16
2023-02-11T07:22:19.226Z,59.20
2023-02-11T07:24:46.407Z,59.63
2023-02-11T07:27:13.319Z,58.88
2023-02-11T07:29:42.491Z,58.32
2023-02-11T07:32:09.804Z,56.88
2023-02-11T07:34:38.373Z,57.36
2023-02-11T07:37:05.592Z,56.13
2023-02-11T07:39:33.062Z,55.64
2023-02-11T07:42:00.724Z,55.64
2023-02-11T07:44:28.271Z,54.79
2023-02-11T07:46:55.533Z,54.06
2023-02-11T07:49:25.826Z,54.30
2023-02-11T07:51:53.724Z,54.05
2023-02-11T07:54:20.963Z,53.20
2023-02-11T07:56:48.074Z,52.83
2023-02-11T07:59:15.054Z,52.54
2023-02-11T08:01:42.029Z,51.86
2023-02-11T08:04:08.936Z,51.10
2023-02-11T08:06:40.202Z,50.64
2023-02-11T08:09:09.506Z,49.87
2023-02-11T08:11:36.844Z,52.18
2023-02-11T08:14:03.865Z,49.37
2023-02-11T08:16:33.822Z,49.03
2023-02-11T08:19:04.528Z,49.46
2023-02-11T08:21:31.445Z,48.39
2023-02-11T08:23:58.650Z,49.02
2023-02-11T08:26:29.689Z,47.78
2023-02-11T08:28:57.766Z,48.02
2023-02-11T08:31:34.504Z,46.86
2023-02-11T08:34:02.681Z,46.42
2023-02-11T08:36:33.055Z,46.93
2023-02-11T08:39:18.222Z,46.44
2023-02-11T08:41:59.225Z,47.25
2023-02-11T08:44:26.470Z,45.65
2023-02-11T08:46:53.986Z,45.11
2023-02-11T08:49:23.030Z,45.41
2023-02-11T08:51:50.403Z,44.86
2023-02-11T08:54:18.096Z,44.67
2023-02-11T08:56:45.737Z,44.34
2023-02-11T08:59:17.189Z,44.99
2023-02-11T09:01:44.447Z,44.81
2023-02-11T09:04:11.506Z,43.60
2023-02-11T09:06:38.774Z,43.10
2023-02-11T09:09:05.750Z,43.51
2023-02-11T09:11:35.658Z,44.75
2023-02-11T09:14:03.983Z,44.29
2023-02-11T09:16:33.875Z,43.81
2023-02-11T09:19:02.115Z,43.43
2023-02-11T09:21:30.471Z,45.22
2023-02-11T09:23:57.558Z,44.72
2023-02-11T09:26:27.551Z,44.18
2023-02-11T09:28:56.193Z,42.69
2023-02-11T09:31:25.557Z,42.38
2023-02-11T09:33:55.589Z,42.52
2023-02-11T09:36:25.386Z,41.89
2023-02-11T09:38:53.405Z,41.90
2023-02-11T09:41:23.091Z,41.53
2023-02-11T09:43:56.929Z,41.74
2023-02-11T09:46:25.870Z,41.49
2023-02-11T09:48:55.350Z,41.56
2023-02-11T09:51:34.396Z,40.79
2023-02-11T09:54:07.903Z,41.64
2023-02-11T09:56:34.861Z,41.00
2023-02-11T09:59:02.054Z,40.79
2023-02-11T10:01:47.163Z,39.13
2023-02-11T10:04:57.922Z,39.54
2023-02-11T10:07:48.797Z,39.67
2023-02-11T10:10:24.852Z,39.32
2023-02-11T10:13:16.202Z,38.40
2023-02-11T10:15:48.550Z,38.46
2023-02-11T10:18:46.124Z,38.61
2023-02-11T10:21:28.528Z,37.95
2023-02-11T10:24:00.335Z,37.78
2023-02-11T10:26:31.990Z,37.75
2023-02-11T10:29:05.758Z,37.75
2023-02-11T10:31:45.021Z,38.61
2023-02-11T10:34:14.305Z,38.03
2023-02-11T10:36:44.301Z,37.68
2023-02-11T10:39:16.484Z,37.76
2023-02-11T10:42:08.995Z,37.46
2023-02-11T10:44:43.782Z,36.94
2023-02-11T10:47:21.244Z,36.86
2023-02-11T10:49:49.032Z,37.36
2023-02-11T10:52:23.987Z,36.53
2023-02-11T10:54:57.762Z,36.62
2023-02-11T10:57:30.496Z,35.60
2023-02-11T11:00:00.611Z,36.46
2023-02-11T11:02:34.489Z,36.12
2023-02-11T11:05:07.054Z,36.46
2023-02-11T11:07:34.466Z,35.47
2023-02-11T11:10:25.055Z,34.50
2023-02-11T11:12:52.165Z,35.34
2023-02-11T11:15:23.635Z,35.59
2023-02-11T11:18:20.894Z,34.62
2023-02-11T11:21:00.323Z,33.82
2023-02-11T11:23:29.638Z,34.11
2023-02-11T11:26:05.586Z,35.06
2023-02-11T11:28:43.500Z,34.04
2023-02-11T11:31:35.642Z,35.98
2023-02-11T11:34:23.321Z,34.83
2023-02-11T11:36:50.983Z,33.75
2023-02-11T11:39:21.087Z,33.10
2023-02-11T11:41:57.504Z,34.17
2023-02-11T11:44:24.492Z,32.79
2023-02-11T11:47:07.584Z,33.87
2023-02-11T11:49:59.382Z,35.32
2023-02-11T11:52:32.441Z,32.74
2023-02-11T11:55:13.185Z,31.56
2023-02-11T11:57:40.560Z,32.20
2023-02-11T12:00:15.612Z,32.07
2023-02-11T12:03:20.985Z,32.15
2023-02-11T12:06:13.407Z,33.08
2023-02-11T12:09:07.965Z,32.86
2023-02-11T12:11:43.835Z,32.68
2023-02-11T12:14:25.607Z,34.38
2023-02-11T12:16:55.156Z,32.67
2023-02-11T12:19:32.265Z,32.73
2023-02-11T12:22:11.984Z,31.84
2023-02-11T12:24:49.277Z,33.11
2023-02-11T12:27:22.082Z,32.89
2023-02-11T12:30:13.827Z,30.58
2023-02-11T12:32:47.003Z,31.41
2023-02-11T12:35:16.965Z,31.70
2023-02-11T12:38:04.181Z,31.22
2023-02-11T12:41:01.356Z,30.78
2023-02-11T12:43:37.735Z,30.03
2023-02-11T12:46:26.083Z,30.13
2023-02-11T12:49:01.030Z,30.18
2023-02-11T12:51:38.081Z,28.79
2023-02-11T12:54:31.767Z,27.95
2023-02-11T12:57:13.666Z,28.19
2023-02-11T13:00:13.187Z,28.29
2023-02-11T13:03:04.977Z,29.90
2023-02-11T13:05:53.124Z,28.68
2023-02-11T13:08:24.996Z,30.48
2023-02-11T13:11:07.089Z,29.80
2023-02-11T13:14:05.507Z,30.11
2023-02-11T13:16:37.461Z,30.04
2023-02-11T13:19:13.637Z,29.91
2023-02-11T13:22:11.310Z,30.17
2023-02-11T13:24:52.764Z,30.55
2023-02-11T13:27:45.734Z,30.11
2023-02-11T13:30:34.757Z,29.45
2023-02-11T13:33:03.265Z,29.05
2023-02-11T13:39:37.127Z,30.11
2023-02-11T13:42:04.808Z,29.82
2023-02-11T13:44:34.706Z,30.03
2023-02-11T13:47:05.033Z,30.20
2023-02-11T13:49:36.224Z,29.60
2023-02-11T13:52:06.449Z,28.81
2023-02-11T13:54:40.958Z,29.27
2023-02-11T13:57:20.095Z,28.36
2023-02-11T13:59:53.479Z,29.30
2023-02-11T14:02:47.436Z,28.70
2023-02-11T14:05:48.894Z,29.50
2023-02-11T14:08:43.343Z,30.67
2023-02-11T14:11:49.313Z,31.35
2023-02-11T14:14:33.545Z,31.39
2023-02-11T14:17:03.497Z,30.73
2023-02-11T14:19:45.598Z,30.28
2023-02-11T14:22:47.851Z,30.39
2023-02-11T14:25:25.557Z,30.93
2023-02-11T14:27:57.918Z,30.12
2023-02-11T14:30:55.411Z,30.54
2023-02-11T14:33:43.773Z,30.35
2023-02-11T14:36:32.725Z,30.01
2023-02-11T14:39:28.841Z,30.13
2023-02-11T14:42:00.551Z,30.23
2023-02-11T14:44:30.396Z,31.37
2023-02-11T14:46:58.126Z,31.93
2023-02-11T14:49:33.573Z,31.87
2023-02-11T14:52:07.526Z,31.70
2023-02-11T14:54:35.310Z,31.67
2023-02-11T14:57:21.473Z,32.18
2023-02-11T15:00:07.716Z,32.75
2023-02-11T15:02:37.314Z,32.84
2023-02-11T15:05:27.398Z,33.03
2023-02-11T15:08:03.262Z,32.02
2023-02-11T15:10:38.126Z,32.98
2023-02-11T15:13:05.922Z,33.00
2023-02-11T15:15:35.882Z,32.52
2023-02-11T15:18:04.285Z,33.18
2023-02-11T15:20:35.852Z,32.47
2023-02-11T15:23:07.798Z,33.66
2023-02-11T15:25:43.009Z,33.24
2023-02-11T15:28:31.020Z,33.79
2023-02-11T15:31:01.746Z,33.45
2023-02-11T15:33:32.939Z,34.20
2023-02-11T15:36:02.790Z,33.44
2023-02-11T15:38:30.441Z,33.44
2023-02-11T15:41:03.506Z,32.49
2023-02-11T15:43:47.341Z,32.78
2023-02-11T15:46:21.261Z,33.68
2023-02-11T15:48:49.454Z,33.98
2023-02-11T15:51:40.020Z,34.75
2023-02-11T15:54:18.957Z,34.80
2023-02-11T15:56:50.007Z,34.95
2023-02-11T15:59:27.257Z,35.40
2023-02-11T16:01:55.078Z,35.66
2023-02-11T16:05:06.319Z,36.25
2023-02-11T16:07:50.246Z,37.48
2023-02-11T16:10:24.101Z,37.94
2023-02-11T16:13:11.177Z,37.90
2023-02-11T16:15:50.947Z,38.58
2023-02-11T16:18:38.429Z,39.07
2023-02-11T16:21:15.866Z,39.62
2023-02-11T16:23:49.353Z,39.98
2023-02-11T16:26:34.024Z,40.19
2023-02-11T16:29:05.037Z,39.89
2023-02-11T16:31:43.306Z,40.32
2023-02-11T16:34:28.282Z,40.24
2023-02-11T16:36:55.676Z,40.47
2023-02-11T16:39:22.980Z,41.12
2023-02-11T16:41:51.868Z,41.19
2023-02-11T16:44:18.831Z,41.43
2023-02-11T16:46:46.080Z,41.85
2023-02-11T16:49:22.686Z,42.10
2023-02-11T16:51:50.846Z,42.15
2023-02-11T16:54:18.914Z,42.66
2023-02-11T16:56:46.295Z,42.56
2023-02-11T16:59:13.452Z,42.76
2023-02-11T17:01:42.093Z,43.53
2023-02-11T17:04:31.568Z,42.71
2023-02-11T17:06:58.865Z,44.24
2023-02-11T17:09:30.597Z,45.30
2023-02-11T17:11:58.234Z,45.68
2023-02-11T17:14:25.182Z,45.66
2023-02-11T17:16:54.710Z,46.33
2023-02-11T17:19:21.850Z,46.44
2023-02-11T17:21:51.716Z,47.91
2023-02-11T17:24:20.624Z,47.93
2023-02-11T17:26:48.662Z,46.86
2023-02-11T17:29:20.993Z,46.71
2023-02-11T17:31:48.283Z,47.48
2023-02-11T17:34:16.621Z,46.15
2023-02-11T17:36:44.023Z,46.86
2023-02-11T17:39:11.088Z,47.02
2023-02-11T17:41:39.024Z,46.99
2023-02-11T17:44:07.709Z,47.63
2023-02-11T17:46:35.547Z,48.44
2023-02-11T17:49:03.815Z,48.53
2023-02-11T17:51:36.621Z,49.37
2023-02-11T17:54:11.025Z,50.33
2023-02-11T17:56:38.490Z,52.03
2023-02-11T17:59:06.512Z,51.97
2023-02-11T18:01:34.003Z,51.20
2023-02-11T18:04:01.841Z,52.13
2023-02-11T18:06:29.290Z,51.97
2023-02-11T18:08:58.037Z,52.43
2023-02-11T18:11:25.986Z,53.12
2023-02-11T18:13:54.460Z,52.45
2023-02-11T18:16:22.430Z,51.06
2023-02-11T18:18:50.134Z,51.33
2023-02-11T18:21:20.122Z,50.99
2023-02-11T18:23:47.893Z,52.15
2023-02-11T18:26:16.400Z,52.31
2023-02-11T18:28:45.849Z,52.49
2023-02-11T18:31:13.901Z,53.42
2023-02-11T18:33:42.249Z,52.99
2023-02-11T18:36:14.366Z,54.21
2023-02-11T18:38:47.138Z,53.98
2023-02-11T18:41:14.508Z,53.89
2023-02-11T18:43:43.016Z,53.06
2023-02-11T18:46:12.683Z,52.85
2023-02-11T18:48:40.429Z,54.03
2023-02-11T18:51:13.205Z,54.83
2023-02-11T18:53:40.125Z,53.76
2023-02-11T18:56:10.731Z,54.60
2023-02-11T18:58:38.091Z,54.78
2023-02-11T19:01:17.588Z,54.09
2023-02-11T19:03:45.190Z,54.68
2023-02-11T19:06:20.013Z,54.87
2023-02-11T19:08:47.434Z,54.45
2023-02-11T19:11:18.700Z,54.51
2023-02-11T19:13:51.346Z,55.64
2023-02-11T19:16:19.866Z,55.70
2023-02-11T19:18:46.992Z,55.61
2023-02-11T19:21:13.858Z,55.40
2023-02-11T19:23:40.822Z,56.51
2023-02-11T19:26:07.929Z,57.66
2023-02-11T19:28:37.197Z,59.57
2023-02-11T19:31:09.183Z,60.08
2023-02-11T19:33:36.833Z,60.78
2023-02-11T19:36:08.237Z,60.95
2023-02-11T19:38:35.898Z,62.23
2023-02-11T19:41:02.868Z,62.08
2023-02-11T19:43:30.433Z,61.56
2023-02-11T19:45:57.793Z,60.72
2023-02-11T19:48:25.445Z,60.68
2023-02-11T19:50:52.812Z,59.54
2023-02-11T19:53:19.834Z,59.13
2023-02-11T20:09:20.147Z,58.25
2023-02-11T20:11:47.256Z,57.63
2023-02-11T20:14:15.212Z,57.94
2023-02-11T20:16:49.176Z,58.78
2023-02-11T20:19:20.030Z,58.26
2023-02-11T20:21:48.928Z,58.52
2023-02-11T20:24:19.654Z,58.54
2023-02-11T20:26:48.506Z,59.27
2023-02-11T20:29:17.503Z,59.42
2023-02-11T20:31:44.901Z,59.60
2023-02-11T20:34:12.621Z,59.10
2023-02-11T20:36:40.677Z,58.61
2023-02-11T20:39:08.186Z,59.20
2023-02-11T20:41:39.221Z,60.54
2023-02-11T20:44:09.988Z,59.74
2023-02-11T20:46:40.170Z,60.29
2023-02-11T20:49:08.876Z,59.87
2023-02-11T20:51:37.389Z,61.17
2023-02-11T20:54:07.627Z,62.14
2023-02-11T20:56:36.949Z,61.94
2023-02-11T20:59:05.943Z,61.71
2023-02-11T21:01:35.910Z,62.76
2023-02-11T21:04:06.310Z,63.89
2023-02-11T21:06:42.042Z,65.02
2023-02-11T21:09:13.148Z,64.88
2023-02-11T21:11:40.345Z,64.90
2023-02-11T21:14:07.765Z,64.23
2023-02-11T21:16:34.602Z,64.62
2023-02-11T21:19:02.896Z,65.26
2023-02-11T21:21:29.866Z,64.75
2023-02-11T21:23:58.440Z,63.59
2023-02-11T21:26:26.234Z,63.36
2023-02-11T21:28:55.153Z,63.32
2023-02-11T21:31:25.138Z,63.32
2023-02-11T21:33:54.553Z,62.22
2023-02-11T21:36:22.823Z,63.19
2023-02-11T21:38:50.137Z,61.83
2023-02-11T21:41:17.605Z,61.43
2023-02-11T21:43:45.121Z,60.36
2023-02-11T21:46:14.882Z,60.95
2023-02-11T21:48:42.345Z,59.94
2023-02-11T21:51:13.034Z,60.60
2023-02-11T21:53:39.952Z,60.60
2023-02-11T21:56:09.965Z,60.40
2023-02-11T21:58:36.918Z,60.20
2023-02-11T22:01:28.503Z,59.70
2023-02-11T22:03:55.747Z,59.43
2023-02-11T22:06:26.292Z,59.28
2023-02-11T22:08:54.725Z,58.58
2023-02-11T22:11:21.830Z,58.82
2023-02-11T22:13:54.070Z,59.62
2023-02-11T22:16:21.294Z,60.60
2023-02-11T22:18:48.305Z,60.64
2023-02-11T22:21:17.475Z,59.84
2023-02-11T22:23:45.191Z,59.63
2023-02-11T22:26:18.399Z,59.78
2023-02-11T22:28:45.667Z,60.43
2023-02-11T22:31:19.402Z,60.39
2023-02-11T22:33:46.932Z,60.49
2023-02-11T22:36:26.297Z,60.72
2023-02-11T22:38:54.150Z,61.50
2023-02-11T22:41:22.597Z,61.79
2023-02-11T22:43:49.544Z,62.10
2023-02-11T22:46:18.455Z,62.65
2023-02-11T22:48:45.959Z,62.89
2023-02-11T22:51:16.367Z,62.65
2023-02-11T22:53:46.509Z,62.84
2023-02-11T22:56:15.596Z,62.40
2023-02-11T22:58:43.504Z,62.10
2023-02-11T23:01:11.535Z,61.35
2023-02-11T23:03:38.913Z,61.36
2023-02-11T23:06:06.417Z,60.83
2023-02-11T23:08:33.646Z,60.27
2023-02-11T23:11:09.825Z,60.61
2023-02-11T23:13:38.779Z,60.58
2023-02-11T23:16:08.621Z,59.69
2023-02-11T23:18:36.817Z,59.74
2023-02-11T23:21:06.804Z,59.37
2023-02-11T23:23:34.630Z,59.75
2023-02-11T23:26:02.082Z,58.99
2023-02-11T23:28:29.724Z,59.62
2023-02-11T23:30:56.696Z,60.37
2023-02-11T23:33:23.672Z,60.79
2023-02-11T23:35:50.578Z,60.76
2023-02-11T23:38:17.572Z,61.11
2023-02-11T23:40:44.396Z,60.71
2023-02-11T23:43:11.259Z,60.49
2023-02-11T23:45:38.144Z,61.10
2023-02-11T23:48:05.036Z,60.35
2023-02-11T23:50:32.659Z,60.94
2023-02-11T23:52:59.545Z,60.84
2023-02-11T23:55:26.381Z,60.63
2023-02-11T23:57:53.235Z,60.40
